createdAt,value
2019-01-19T00:00:57.333Z,101294.58
2019-01-19T00:03:45.304Z,101295.31
2019-01-19T00:06:24.042Z,101286.70
2019-01-19T00:08:50.274Z,101289.16
2019-01-19T00:11:55.351Z,101282.25
2019-01-19T00:14:22.735Z,101281.42
2019-01-19T00:17:07.807Z,101281.42
2019-01-19T00:19:55.755Z,101281.77
2019-01-19T00:22:47.045Z,101285.66
2019-01-19T00:25:50.545Z,101289.46
2019-01-19T00:28:35.061Z,101283.36
2019-01-19T00:31:04.813Z,101287.20
2019-01-19T00:33:52.834Z,101286.66
2019-01-19T00:36:25.702Z,101286.22
2019-01-19T00:38:58.209Z,101283.05
2019-01-19T00:41:39.428Z,101283.97
2019-01-19T00:44:09.143Z,101287.41
2019-01-19T00:46:41.612Z,101280.55
2019-01-19T00:49:11.153Z,101285.26
2019-01-19T00:52:08.605Z,101275.33
2019-01-19T00:54:38.332Z,101277.87
2019-01-19T00:57:08.055Z,101277.70
2019-01-19T00:59:33.962Z,101274.80
2019-01-19T01:02:08.616Z,101272.62
2019-01-19T01:04:53.651Z,101271.70
2019-01-19T01:07:47.847Z,101267.84
2019-01-19T01:10:23.481Z,101266.52
2019-01-19T01:12:58.812Z,101269.05
2019-01-19T01:15:48.702Z,101269.09
2019-01-19T01:18:23.891Z,101275.53
2019-01-19T01:20:53.620Z,101276.41
2019-01-19T01:23:40.858Z,101275.88
2019-01-19T01:26:25.577Z,101276.37
2019-01-19T01:29:21.209Z,101274.94
2019-01-19T01:32:18.679Z,101271.78
2019-01-19T01:35:03.525Z,101276.66
2019-01-19T01:37:35.759Z,101281.78
2019-01-19T01:40:25.539Z,101282.07
2019-01-19T01:42:55.226Z,101279.07
2019-01-19T01:45:36.895Z,101282.41
2019-01-19T01:48:21.810Z,101279.07
2019-01-19T01:51:09.843Z,101277.30
2019-01-19T01:53:56.209Z,101282.47
2019-01-19T01:56:22.150Z,101275.19
2019-01-19T01:58:58.003Z,101265.95
2019-01-19T02:01:30.600Z,101272.84
2019-01-19T02:04:26.188Z,101269.77
2019-01-19T02:07:08.220Z,101267.66
2019-01-19T02:09:46.912Z,101271.07
2019-01-19T02:12:36.361Z,101266.28
2019-01-19T02:15:22.998Z,101268.31
2019-01-19T02:18:10.368Z,101266.56
2019-01-19T02:20:52.307Z,101273.15
2019-01-19T02:23:33.832Z,101268.82
2019-01-19T02:26:20.240Z,101266.11
2019-01-19T02:29:10.000Z,101269.91
2019-01-19T02:31:59.683Z,101260.15
2019-01-19T02:34:32.309Z,101256.20
2019-01-19T02:37:01.989Z,101257.95
2019-01-19T02:39:58.739Z,101262.22
2019-01-19T02:42:28.427Z,101263.95
2019-01-19T02:45:20.777Z,101259.94
2019-01-19T02:48:39.495Z,101262.09
2019-01-19T02:51:15.397Z,101262.11
2019-01-19T02:54:06.334Z,101262.11
2019-01-19T02:57:06.790Z,101268.14
2019-01-19T02:59:48.568Z,101259.34
2019-01-19T03:02:21.296Z,101259.23
2019-01-19T03:04:51.057Z,101256.30
2019-01-19T03:07:23.795Z,101255.59
2019-01-19T03:10:10.406Z,101255.31
2019-01-19T03:12:52.184Z,101253.12
2019-01-19T03:15:24.879Z,101250.47
2019-01-19T03:18:06.618Z,101244.38
2019-01-19T03:20:39.075Z,101241.36
2019-01-19T03:23:08.808Z,101241.41
2019-01-19T03:25:54.009Z,101243.53
2019-01-19T03:28:29.430Z,101241.36
2019-01-19T03:31:24.836Z,101236.48
2019-01-19T03:34:13.796Z,101238.27
2019-01-19T03:37:18.878Z,101242.16
2019-01-19T03:40:12.991Z,101242.63
2019-01-19T03:42:45.426Z,101236.18
2019-01-19T03:45:35.020Z,101236.48
2019-01-19T03:48:16.920Z,101242.20
2019-01-19T03:50:46.686Z,101241.71
2019-01-19T03:53:31.576Z,101241.21
2019-01-19T03:56:10.029Z,101237.16
2019-01-19T03:58:51.304Z,101236.69
2019-01-19T04:01:41.960Z,101241.48
2019-01-19T04:04:26.694Z,101238.04
2019-01-19T04:07:10.989Z,101235.95
2019-01-19T04:09:58.522Z,101236.33
2019-01-19T04:12:37.266Z,101237.95
2019-01-19T04:15:15.984Z,101229.72
2019-01-19T04:17:51.758Z,101231.07
2019-01-19T04:20:27.315Z,101233.10
2019-01-19T04:22:54.295Z,101231.68
2019-01-19T04:25:24.013Z,101230.42
2019-01-19T04:27:49.894Z,101227.42
2019-01-19T04:30:15.843Z,101233.45
2019-01-19T04:32:41.711Z,101227.48
2019-01-19T04:35:07.747Z,101229.13
2019-01-19T04:37:33.615Z,101227.11
2019-01-19T04:39:59.536Z,101231.69
2019-01-19T04:42:25.702Z,101232.22
2019-01-19T04:44:51.613Z,101228.75
2019-01-19T04:47:17.537Z,101232.22
2019-01-19T04:49:43.469Z,101225.62
2019-01-19T04:52:09.401Z,101228.09
2019-01-19T04:54:35.280Z,101219.58
2019-01-19T04:57:01.204Z,101223.93
2019-01-19T04:59:27.128Z,101222.48
2019-01-19T05:01:53.032Z,101222.48
2019-01-19T05:04:18.948Z,101219.48
2019-01-19T05:06:44.823Z,101221.56
2019-01-19T05:09:10.718Z,101222.35
2019-01-19T05:11:36.620Z,101217.16
2019-01-19T05:14:02.522Z,101217.59
2019-01-19T05:16:28.406Z,101214.06
2019-01-19T05:18:54.323Z,101213.55
2019-01-19T05:21:20.480Z,101213.94
2019-01-19T05:23:46.488Z,101219.48
2019-01-19T05:26:12.360Z,101221.15
2019-01-19T05:28:39.106Z,101218.12
2019-01-19T05:31:05.012Z,101214.41
2019-01-19T05:33:30.876Z,101219.58
2019-01-19T05:35:56.779Z,101215.22
2019-01-19T05:38:22.660Z,101216.48
2019-01-19T05:40:48.557Z,101215.54
2019-01-19T05:43:14.421Z,101215.54
2019-01-19T05:45:40.323Z,101221.22
2019-01-19T05:48:06.325Z,101211.73
2019-01-19T05:50:32.267Z,101214.14
2019-01-19T05:52:58.182Z,101219.79
2019-01-19T05:55:24.095Z,101215.54
2019-01-19T05:57:50.009Z,101213.94
2019-01-19T06:00:23.413Z,101217.38
2019-01-19T06:02:49.321Z,101221.16
2019-01-19T06:05:15.204Z,101224.17
2019-01-19T06:07:41.799Z,101220.37
2019-01-19T06:10:16.479Z,101223.77
2019-01-19T06:12:42.483Z,101224.11
2019-01-19T06:15:10.865Z,101227.20
2019-01-19T06:17:36.778Z,101225.06
2019-01-19T06:20:05.448Z,101226.86
2019-01-19T06:22:31.487Z,101226.76
2019-01-19T06:24:57.357Z,101230.67
2019-01-19T06:27:23.223Z,101233.28
2019-01-19T06:29:49.220Z,101232.33
2019-01-19T06:32:15.301Z,101231.14
2019-01-19T06:34:41.212Z,101230.73
2019-01-19T06:37:07.093Z,101230.73
2019-01-19T06:39:33.030Z,101225.57
2019-01-19T06:41:58.904Z,101222.48
2019-01-19T06:44:24.791Z,101226.62
2019-01-19T06:46:50.724Z,101231.38
2019-01-19T06:49:16.594Z,101230.56
2019-01-19T06:51:42.548Z,101235.66
2019-01-19T06:54:08.730Z,101240.64
2019-01-19T06:56:34.624Z,101243.45
2019-01-19T06:59:00.500Z,101247.95
2019-01-19T07:01:26.423Z,101245.84
2019-01-19T07:03:52.295Z,101242.52
2019-01-19T07:06:18.209Z,101240.75
2019-01-19T07:08:44.181Z,101237.69
2019-01-19T07:11:10.109Z,101241.49
2019-01-19T07:13:36.014Z,101242.41
2019-01-19T07:16:01.939Z,101247.14
2019-01-19T07:18:27.860Z,101246.18
2019-01-19T07:20:53.774Z,101242.01
2019-01-19T07:23:19.657Z,101240.02
2019-01-19T07:25:45.628Z,101243.88
2019-01-19T07:28:11.548Z,101240.22
2019-01-19T07:30:37.431Z,101240.79
2019-01-19T07:33:03.365Z,101243.30
2019-01-19T07:35:29.245Z,101244.30
2019-01-19T07:37:55.171Z,101245.18
2019-01-19T07:40:21.148Z,101244.73
2019-01-19T07:42:48.967Z,101249.09
2019-01-19T07:45:14.830Z,101252.08
2019-01-19T07:47:41.766Z,101251.13
2019-01-19T07:50:10.382Z,101260.16
2019-01-19T07:52:36.337Z,101249.90
2019-01-19T07:55:03.806Z,101249.87
2019-01-19T07:57:31.455Z,101255.17
2019-01-19T07:59:57.531Z,101255.80
2019-01-19T08:02:23.491Z,101250.73
2019-01-19T08:04:49.399Z,101255.12
2019-01-19T08:07:17.396Z,101261.65
2019-01-19T08:09:43.187Z,101260.80
2019-01-19T08:12:09.116Z,101258.21
2019-01-19T08:14:34.978Z,101260.94
2019-01-19T08:17:00.934Z,101248.83
2019-01-19T08:19:26.847Z,101265.31
2019-01-19T08:21:52.756Z,101259.84
2019-01-19T08:24:18.644Z,101257.31
2019-01-19T08:26:44.538Z,101255.78
2019-01-19T08:29:10.394Z,101250.61
2019-01-19T08:31:36.391Z,101255.02
2019-01-19T08:34:02.279Z,101252.53
2019-01-19T08:36:28.143Z,101250.76
2019-01-19T08:38:54.107Z,101256.56
2019-01-19T08:41:19.968Z,101255.78
2019-01-19T08:43:47.794Z,101253.28
2019-01-19T08:46:13.661Z,101258.80
2019-01-19T08:48:39.663Z,101259.30
2019-01-19T08:51:05.576Z,101259.94
2019-01-19T08:53:31.521Z,101253.14
2019-01-19T08:55:57.403Z,101256.36
2019-01-19T08:58:23.305Z,101256.08
2019-01-19T09:00:49.181Z,101258.28
2019-01-19T09:03:15.090Z,101256.70
2019-01-19T09:05:40.959Z,101260.71
2019-01-19T09:08:06.868Z,101263.44
2019-01-19T09:10:32.732Z,101261.28
2019-01-19T09:12:58.637Z,101259.22
2019-01-19T09:15:24.817Z,101262.71
2019-01-19T09:17:50.755Z,101261.53
2019-01-19T09:20:16.653Z,101262.88
2019-01-19T09:22:42.679Z,101255.56
2019-01-19T09:25:11.703Z,101263.02
2019-01-19T09:27:37.612Z,101263.05
2019-01-19T09:30:07.335Z,101260.53
2019-01-19T09:32:33.659Z,101260.15
2019-01-19T09:34:59.550Z,101262.36
2019-01-19T09:37:25.465Z,101259.69
2019-01-19T09:39:51.465Z,101255.45
2019-01-19T09:42:17.372Z,101254.17
2019-01-19T09:44:43.248Z,101255.50
2019-01-19T09:47:09.166Z,101253.39
2019-01-19T09:49:35.080Z,101258.19
2019-01-19T09:52:01.071Z,101252.66
2019-01-19T09:54:26.952Z,101250.12
2019-01-19T09:56:52.810Z,101242.34
2019-01-19T09:59:18.729Z,101244.16
2019-01-19T10:01:44.619Z,101239.83
2019-01-19T10:04:10.539Z,101244.20
2019-01-19T10:06:36.432Z,101242.08
2019-01-19T10:09:06.447Z,101238.66
2019-01-19T10:11:32.410Z,101244.70
2019-01-19T10:13:58.313Z,101241.65
2019-01-19T10:16:24.295Z,101242.63
2019-01-19T10:18:50.255Z,101245.64
2019-01-19T10:21:16.124Z,101242.59
2019-01-19T10:23:41.995Z,101241.82
2019-01-19T10:26:07.911Z,101234.92
2019-01-19T10:28:33.787Z,101239.34
2019-01-19T10:30:59.752Z,101229.47
2019-01-19T10:33:26.620Z,101229.56
2019-01-19T10:35:52.520Z,101234.75
2019-01-19T10:38:18.447Z,101229.98
2019-01-19T10:40:44.312Z,101218.33
2019-01-19T10:43:10.213Z,101220.52
2019-01-19T10:45:36.099Z,101222.71
2019-01-19T10:48:02.010Z,101222.77
2019-01-19T10:50:27.897Z,101218.02
2019-01-19T10:52:53.853Z,101214.62
2019-01-19T10:55:23.314Z,101209.91
2019-01-19T10:57:49.257Z,101213.80
2019-01-19T11:00:26.892Z,101209.91
2019-01-19T11:02:53.510Z,101201.28
2019-01-19T11:05:19.387Z,101203.47
2019-01-19T11:07:47.170Z,101196.06
2019-01-19T11:10:16.068Z,101190.88
2019-01-19T11:12:42.148Z,101190.88
2019-01-19T11:15:10.982Z,101183.13
2019-01-19T11:17:36.845Z,101179.22
2019-01-19T11:20:06.614Z,101183.22
2019-01-19T11:22:32.490Z,101184.03
2019-01-19T11:24:58.704Z,101174.55
2019-01-19T11:27:24.577Z,101178.90
2019-01-19T11:29:50.441Z,101179.78
2019-01-19T11:32:16.338Z,101172.84
2019-01-19T11:34:42.217Z,101171.97
2019-01-19T11:37:08.124Z,101172.84
2019-01-19T11:39:33.989Z,101160.70
2019-01-19T11:41:59.894Z,101164.16
2019-01-19T11:44:25.772Z,101156.77
2019-01-19T11:46:51.692Z,101158.52
2019-01-19T11:49:17.565Z,101155.47
2019-01-19T11:51:43.475Z,101158.95
2019-01-19T11:54:09.968Z,101152.43
2019-01-19T11:56:35.909Z,101147.64
2019-01-19T11:59:01.794Z,101147.66
2019-01-19T12:01:27.671Z,101145.93
2019-01-19T12:03:53.565Z,101147.64
2019-01-19T12:06:19.770Z,101146.78
2019-01-19T12:08:45.673Z,101142.87
2019-01-19T12:11:11.546Z,101132.41
2019-01-19T12:13:37.445Z,101130.25
2019-01-19T12:16:03.329Z,101134.16
2019-01-19T12:18:29.299Z,101134.61
2019-01-19T12:20:55.175Z,101128.05
2019-01-19T12:23:21.063Z,101122.31
2019-01-19T12:25:47.016Z,101113.72
2019-01-19T12:28:13.008Z,101112.42
2019-01-19T12:30:38.947Z,101116.26
2019-01-19T12:33:04.848Z,101107.98
2019-01-19T12:35:30.752Z,101102.84
2019-01-19T12:37:58.032Z,101104.11
2019-01-19T12:40:26.074Z,101101.05
2019-01-19T12:42:54.460Z,101102.31
2019-01-19T12:45:23.795Z,101101.47
2019-01-19T12:47:49.782Z,101098.09
2019-01-19T12:50:18.270Z,101095.37
2019-01-19T12:52:44.218Z,101094.11
2019-01-19T12:55:12.039Z,101093.61
2019-01-19T12:57:37.970Z,101092.34
2019-01-19T13:00:07.785Z,101088.44
2019-01-19T13:02:33.704Z,101091.04
2019-01-19T13:04:59.576Z,101084.47
2019-01-19T13:07:25.523Z,101078.75
2019-01-19T13:09:51.514Z,101082.20
2019-01-19T13:12:23.310Z,101080.52
2019-01-19T13:14:52.995Z,101074.84
2019-01-19T13:17:37.314Z,101071.49
2019-01-19T13:20:16.183Z,101068.46
2019-01-19T13:23:04.129Z,101064.13
2019-01-19T13:25:53.667Z,101067.20
2019-01-19T13:28:42.723Z,101068.64
2019-01-19T13:31:40.341Z,101065.94
2019-01-19T13:34:13.044Z,101060.69
2019-01-19T13:36:45.809Z,101062.03
2019-01-19T13:39:34.000Z,101059.85
2019-01-19T13:42:23.390Z,101062.00
2019-01-19T13:45:17.597Z,101062.91
2019-01-19T13:48:05.223Z,101059.92
2019-01-19T13:50:34.979Z,101056.78
2019-01-19T13:53:07.504Z,101050.22
2019-01-19T13:55:40.235Z,101054.13
2019-01-19T13:58:09.927Z,101054.97
2019-01-19T14:01:14.940Z,101053.34
2019-01-19T14:03:47.654Z,101061.58
2019-01-19T14:06:20.172Z,101060.80
2019-01-19T14:09:15.968Z,101054.67
2019-01-19T14:12:04.320Z,101049.81
2019-01-19T14:14:36.834Z,101056.36
2019-01-19T14:17:21.697Z,101053.72
2019-01-19T14:20:00.272Z,101050.73
2019-01-19T14:22:30.000Z,101051.99
2019-01-19T14:25:08.590Z,101050.27
2019-01-19T14:27:57.717Z,101044.25
2019-01-19T14:30:27.542Z,101042.48
2019-01-19T14:33:10.624Z,101047.81
2019-01-19T14:35:52.518Z,101042.63
2019-01-19T14:38:24.757Z,101045.23
2019-01-19T14:41:00.491Z,101040.03
2019-01-19T14:43:45.121Z,101040.87
2019-01-19T14:46:26.432Z,101035.67
2019-01-19T14:49:12.967Z,101039.12
2019-01-19T14:51:57.519Z,101041.83
2019-01-19T14:54:42.397Z,101032.28
2019-01-19T14:57:37.954Z,101042.29
2019-01-19T15:00:07.679Z,101046.20
2019-01-19T15:02:55.538Z,101036.63
2019-01-19T15:05:25.221Z,101027.97
2019-01-19T15:08:11.951Z,101035.36
2019-01-19T15:10:58.243Z,101035.35
2019-01-19T15:13:44.463Z,101030.59
2019-01-19T15:16:31.317Z,101034.00
2019-01-19T15:19:02.181Z,101027.99
2019-01-19T15:21:54.231Z,101029.73
2019-01-19T15:24:29.769Z,101027.53
2019-01-19T15:27:05.081Z,101027.12
2019-01-19T15:29:49.912Z,101024.48
2019-01-19T15:32:37.752Z,101028.81
2019-01-19T15:35:34.906Z,101028.83
2019-01-19T15:38:07.698Z,101022.67
2019-01-19T15:40:43.398Z,101026.59
2019-01-19T15:43:18.848Z,101017.54
2019-01-19T15:45:57.358Z,101017.10
2019-01-19T15:48:30.083Z,101018.39
2019-01-19T15:51:11.820Z,101011.49
2019-01-19T15:53:50.795Z,101017.10
2019-01-19T15:56:29.427Z,101014.03
2019-01-19T15:59:17.122Z,101019.23
2019-01-19T16:02:16.088Z,101007.98
2019-01-19T16:04:48.598Z,101009.30
2019-01-19T16:07:33.560Z,101014.94
2019-01-19T16:10:18.396Z,101009.32
2019-01-19T16:12:54.247Z,101003.69
2019-01-19T16:15:32.676Z,101008.89
2019-01-19T16:18:08.448Z,101010.62
2019-01-19T16:20:41.018Z,101006.28
2019-01-19T16:23:17.091Z,101005.87
2019-01-19T16:25:49.965Z,101009.77
2019-01-19T16:28:41.272Z,101001.95
2019-01-19T16:31:16.977Z,101006.66
2019-01-19T16:34:05.137Z,101004.98
2019-01-19T16:36:55.465Z,101003.18
2019-01-19T16:39:43.342Z,101005.19
2019-01-19T16:42:15.955Z,101000.09
2019-01-19T16:45:11.839Z,100995.29
2019-01-19T16:47:41.559Z,100994.50
2019-01-19T16:50:31.349Z,100999.72
2019-01-19T16:53:04.613Z,100998.41
2019-01-19T16:55:34.352Z,100998.40
2019-01-19T16:58:13.410Z,100998.41
2019-01-19T17:01:05.996Z,101000.16
2019-01-19T17:03:44.870Z,100995.87
2019-01-19T17:06:38.485Z,100993.86
2019-01-19T17:09:19.936Z,100987.09
2019-01-19T17:12:07.275Z,100995.38
2019-01-19T17:15:00.179Z,100988.88
2019-01-19T17:17:55.899Z,100986.45
2019-01-19T17:20:40.219Z,100991.64
2019-01-19T17:23:25.223Z,100996.53
2019-01-19T17:26:14.588Z,100990.30
2019-01-19T17:28:53.113Z,100988.62
2019-01-19T17:31:31.630Z,100976.23
2019-01-19T17:34:16.105Z,100974.49
2019-01-19T17:37:05.711Z,100980.91
2019-01-19T17:39:41.490Z,100976.68
2019-01-19T17:42:11.174Z,100978.41
2019-01-19T17:44:46.697Z,100978.38
2019-01-19T17:47:19.369Z,100981.88
2019-01-19T17:50:00.641Z,100983.49
2019-01-19T17:52:39.477Z,100979.23
2019-01-19T17:55:11.798Z,100983.61
2019-01-19T17:57:44.465Z,100981.89
2019-01-19T18:00:16.979Z,100978.44
2019-01-19T18:02:49.407Z,100985.34
2019-01-19T18:05:22.105Z,100982.73
2019-01-19T18:08:18.075Z,100981.44
2019-01-19T18:10:53.485Z,100973.22
2019-01-19T18:13:25.949Z,100968.89
2019-01-19T18:16:21.547Z,100977.92
2019-01-19T18:18:51.231Z,100977.50
2019-01-19T18:21:37.913Z,100968.42
2019-01-19T18:24:07.594Z,100976.58
2019-01-19T18:26:46.441Z,100971.00
2019-01-19T18:29:34.348Z,100976.20
2019-01-19T18:32:19.106Z,100980.30
2019-01-19T18:35:08.088Z,100975.67
2019-01-19T18:37:52.988Z,100977.41
2019-01-19T18:40:37.422Z,100967.78
2019-01-19T18:43:12.664Z,100970.50
2019-01-19T18:45:51.189Z,100970.95
2019-01-19T18:48:26.671Z,100971.34
2019-01-19T18:51:11.495Z,100970.92
2019-01-19T18:53:50.528Z,100972.67
2019-01-19T18:56:38.436Z,100972.18
2019-01-19T18:59:20.211Z,100969.18
2019-01-19T19:01:55.763Z,100970.48
2019-01-19T19:04:46.321Z,100966.17
2019-01-19T19:07:22.008Z,100974.83
2019-01-19T19:09:54.603Z,100978.23
2019-01-19T19:12:50.531Z,100973.92
2019-01-19T19:15:29.152Z,100971.28
2019-01-19T19:18:24.588Z,100981.19
2019-01-19T19:21:20.523Z,100981.67
2019-01-19T19:24:09.688Z,100980.39
2019-01-19T19:26:39.361Z,100974.80
2019-01-19T19:29:14.727Z,100978.22
2019-01-19T19:31:52.903Z,100975.14
2019-01-19T19:34:30.991Z,100978.19
2019-01-19T19:37:06.677Z,100987.26
2019-01-19T19:39:53.285Z,100982.94
2019-01-19T19:42:25.917Z,100985.52
2019-01-19T19:45:24.778Z,100977.66
2019-01-19T19:48:00.374Z,100981.97
2019-01-19T19:50:30.097Z,100978.59
2019-01-19T19:52:56.068Z,100983.70
2019-01-19T19:55:21.764Z,100983.27
2019-01-19T19:57:47.689Z,100977.22
2019-01-19T20:00:13.577Z,100981.12
2019-01-19T20:02:39.497Z,100972.87
2019-01-19T20:05:08.584Z,100967.72
2019-01-19T20:07:34.501Z,100969.84
2019-01-19T20:10:00.379Z,100976.27
2019-01-19T20:12:26.614Z,100976.65
2019-01-19T20:14:52.490Z,100981.05
2019-01-19T20:17:18.612Z,100981.48
2019-01-19T20:19:44.526Z,100973.70
2019-01-19T20:22:10.454Z,100974.16
2019-01-19T20:24:36.353Z,100974.10
2019-01-19T20:27:02.416Z,100970.27
2019-01-19T20:29:28.327Z,100969.01
2019-01-19T20:31:54.232Z,100977.16
2019-01-19T20:34:20.152Z,100981.00
2019-01-19T20:36:46.029Z,100972.41
2019-01-19T20:39:12.066Z,100971.91
2019-01-19T20:41:37.923Z,100971.91
2019-01-19T20:44:03.862Z,100981.42
2019-01-19T20:46:29.730Z,100974.05
2019-01-19T20:48:55.791Z,100975.30
2019-01-19T20:51:21.695Z,100976.56
2019-01-19T20:53:47.601Z,100972.55
2019-01-19T20:56:13.560Z,100974.27
2019-01-19T20:58:39.582Z,100975.52
2019-01-19T21:01:05.467Z,100975.09
2019-01-19T21:03:31.394Z,100978.94
2019-01-19T21:05:57.314Z,100978.94
2019-01-19T21:08:23.199Z,100979.75
2019-01-19T21:10:49.139Z,100978.48
2019-01-19T21:13:15.015Z,100975.01
2019-01-19T21:15:40.890Z,100974.91
2019-01-19T21:18:06.915Z,100980.49
2019-01-19T21:20:34.418Z,100981.72
2019-01-19T21:23:00.416Z,100974.84
2019-01-19T21:25:26.393Z,100975.69
2019-01-19T21:27:52.424Z,100980.75
2019-01-19T21:30:18.420Z,100979.73
2019-01-19T21:32:44.351Z,100974.36
2019-01-19T21:35:10.373Z,100980.67
2019-01-19T21:37:36.294Z,100984.48
2019-01-19T21:40:05.498Z,100983.95
2019-01-19T21:42:31.380Z,100977.47
2019-01-19T21:44:57.298Z,100975.64
2019-01-19T21:47:23.173Z,100977.31
2019-01-19T21:49:49.611Z,100979.91
2019-01-19T21:52:15.494Z,100977.38
2019-01-19T21:54:41.400Z,100975.34
2019-01-19T21:57:07.317Z,100976.95
2019-01-19T21:59:33.220Z,100969.36
2019-01-19T22:01:59.133Z,100965.39
2019-01-19T22:04:25.067Z,100960.72
2019-01-19T22:06:50.935Z,100969.86
2019-01-19T22:09:16.847Z,100967.23
2019-01-19T22:11:42.731Z,100967.11
2019-01-19T22:14:08.689Z,100967.62
2019-01-19T22:16:34.596Z,100965.67
2019-01-19T22:19:00.511Z,100961.08
2019-01-19T22:21:26.432Z,100962.83
2019-01-19T22:23:52.350Z,100961.62
2019-01-19T22:26:18.626Z,100965.08
2019-01-19T22:28:44.541Z,100959.90
2019-01-19T22:31:10.429Z,100955.92
2019-01-19T22:33:36.353Z,100959.20
2019-01-19T22:36:02.258Z,100961.44
2019-01-19T22:38:28.183Z,100965.90
2019-01-19T22:40:54.059Z,100966.87
2019-01-19T22:43:20.101Z,100964.12
2019-01-19T22:45:45.968Z,100957.23
2019-01-19T22:48:11.868Z,100965.91
2019-01-19T22:50:37.899Z,100958.95
2019-01-19T22:53:03.775Z,100953.53
2019-01-19T22:55:29.696Z,100952.66
2019-01-19T22:57:55.606Z,100959.13
2019-01-19T23:00:38.684Z,100948.72
2019-01-19T23:03:04.784Z,100948.20
2019-01-19T23:05:30.686Z,100960.06
2019-01-19T23:07:56.556Z,100949.63
2019-01-19T23:10:22.460Z,100955.95
2019-01-19T23:12:48.347Z,100957.68
2019-01-19T23:15:14.857Z,100947.16
2019-01-19T23:17:40.743Z,100961.40
2019-01-19T23:20:08.670Z,100943.83
2019-01-19T23:22:34.680Z,100951.84
2019-01-19T23:25:00.787Z,100955.45
2019-01-19T23:27:26.683Z,100953.30
2019-01-19T23:29:52.579Z,100948.61
2019-01-19T23:32:18.488Z,100945.96
2019-01-19T23:34:44.391Z,100938.64
2019-01-19T23:37:10.304Z,100943.35
2019-01-19T23:39:36.221Z,100938.46
2019-01-19T23:42:02.157Z,100940.62
2019-01-19T23:44:28.050Z,100940.09
2019-01-19T23:46:53.971Z,100940.93
2019-01-19T23:49:19.851Z,100940.91
2019-01-19T23:51:45.761Z,100937.41
2019-01-19T23:54:11.740Z,100936.55
2019-01-19T23:56:37.689Z,100939.41
2019-01-19T23:59:03.587Z,100933.30
